Data for 09/19/2014

Time Sea-Level Adjusted Pressure Absolute Pressure Temperature Relative Humidity Dew Point   
(mb) (inHg) (mb) (inHg) (C) (F) (%) (C) (F)
00:05 1015 29.97 844 24.92 11.7 53 75 7.4 45.3
00:10 1015 29.97 844 24.92 11.6 52.8 75 7.3 45.2
00:15 1015 29.97 844 24.92 11.5 52.8 75 7.2 44.9
00:20 1015 29.97 844 24.92 11.6 53 74 7.2 44.9
00:25 1015 29.97 844 24.92 11.8 53.2 73 7.1 44.9
00:30 1015 29.97 844 24.92 12 53.6 72 7.1 44.9
00:35 1015 29.97 844 24.92 12.4 54.2 70 7.1 44.8
00:40 1015 29.97 844 24.92 12.6 54.6 70 7.2 45
00:45 1015 29.97 845 24.95 12.5 54.6 70 7.2 45
00:50 1015 29.97 845 24.95 12.5 54.6 70 7.2 45
00:55 1015 29.97 844 24.92 12.5 54.4 70 7.1 44.8
01:00 1015 29.97 844 24.92 12.5 54.6 69 7.1 44.7
01:05 1015 29.97 845 24.95 12.6 54.6 70 7.3 45.2
01:10 1015 29.97 845 24.95 12.1 53.8 71 7 44.6
01:15 1015 29.97 845 24.95 12.2 54 72 7.3 45.1
01:20 1016 30 845 24.95 12.2 53.9 73 7.5 45.6
01:25 1016 30 845 24.95 11.6 53 77 7.8 46
01:30 1016 30 845 24.95 11.4 52.5 76 7.4 45.4
01:35 1016 30 845 24.95 11.8 53.2 74 7.3 45.2
01:40 1016 30 845 24.95 11.8 53.2 75 7.4 45.3
01:45 1016 30 845 24.95 11.4 52.4 76 7.3 45.1
01:50 1016 30 845 24.95 11.3 52.3 75 7.1 44.8
01:55 1016 30 845 24.95 11.4 52.4 76 7.2 45
02:00 1016 30 845 24.95 11.7 53 74 7.2 45
02:05 1016 30 845 24.95 12 53.6 72 7.1 44.7
02:10 1016 30 845 24.95 11.9 53.4 72 7 44.6
02:15 1016 30 845 24.95 11.8 53.2 73 7.1 44.7
02:20 1016 30 845 24.95 11.5 52.7 73 6.9 44.5
02:25 1016 30 845 24.95 11.2 52.2 74 6.8 44.3
02:30 1016 30 845 24.95 11.5 52.6 73 6.7 44.1
02:35 1016 30 845 24.95 11.3 52.3 74 6.9 44.3
02:40 1016 30 845 24.95 10.9 51.5 76 6.8 44.3
02:45 1016 30 845 24.95 10.5 50.9 77 6.7 44.1
02:50 1016 30 845 24.95 10.4 50.8 77 6.6 44
02:55 1016 30 845 24.95 10.4 50.7 78 6.8 44.2
03:00 1016 30 845 24.95 10.3 50.5 78 6.6 43.9
03:05 1016 30 845 24.95 10.4 50.7 78 6.8 44.2
03:10 1016 30 845 24.95 10.5 50.8 78 6.7 44.1
03:15 1016 30 845 24.95 10.5 50.9 77 6.7 44.1
03:20 1016 30 845 24.95 10.6 51 77 6.8 44.2
03:25 1016 30 845 24.95 10.3 50.5 79 6.8 44.2
03:30 1016 30 845 24.95 10 50 79 6.5 43.7
03:35 1016 30 845 24.95 10 49.9 79 6.6 43.8
03:40 1016 30 845 24.95 9.7 49.4 80 6.5 43.7
03:45 1016 30 845 24.95 9.5 49.2 81 6.4 43.5
03:50 1016 30 845 24.95 9.5 49.1 81 6.5 43.6
03:55 1016 30 845 24.95 9.2 48.6 83 6.4 43.6
04:00 1016 30 845 24.95 9 48.3 84 6.4 43.6
04:05 1016 30 845 24.95 9.2 48.5 83 6.4 43.5
04:10 1016 30 846 24.98 9.2 48.6 83 6.5 43.7
04:15 1016 30 846 24.98 9.3 48.8 82 6.4 43.5
04:20 1016 30 846 24.98 9.4 49 81 6.4 43.6
04:25 1016 30 846 24.98 9.5 49.1 81 6.4 43.4
04:30 1017 30.03 846 24.98 9.7 49.4 80 6.4 43.5
04:35 1017 30.03 846 24.98 9.7 49.4 80 6.5 43.7
04:40 1017 30.03 846 24.98 9.3 48.8 82 6.5 43.6
04:45 1017 30.03 846 24.98 9.2 48.6 82 6.3 43.4
04:50 1017 30.03 846 24.98 9.6 49.2 81 6.4 43.6
04:55 1017 30.03 846 24.98 10 49.9 79 6.6 43.8
05:00 1017 30.03 846 24.98 10 50.1 80 6.7 44
05:05 1017 30.03 846 24.98 10 50 80 6.7 44
05:10 1017 30.03 846 24.98 9.9 49.7 80 6.6 43.9
05:15 1017 30.03 846 24.98 9.6 49.3 82 6.6 43.9
05:20 1017 30.03 846 24.98 9.4 48.8 83 6.6 43.9
05:25 1017 30.03 846 24.98 9.2 48.5 83 6.5 43.7
05:30 1017 30.03 846 24.98 9.1 48.4 82 6.2 43.2
05:35 1017 30.03 846 24.98 9.3 48.7 81 6.2 43.2
05:40 1017 30.03 846 24.98 9.4 49 80 6.1 43
05:45 1017 30.03 846 24.98 9.6 49.2 80 6.3 43.3
05:50 1017 30.03 846 24.98 9.6 49.2 80 6.3 43.3
05:55 1017 30.03 846 24.98 9.6 49.2 80 6.2 43.2
06:00 1017 30.03 846 24.98 9.7 49.4 80 6.4 43.5
06:05 1017 30.03 846 24.98 9.9 49.8 78 6.3 43.3
06:10 1017 30.03 846 24.98 10.4 50.6 76 6.4 43.4
06:15 1017 30.03 846 24.98 10.8 51.4 75 6.6 44
06:20 1017 30.03 847 25.01 10.8 51.4 75 6.6 43.8
06:25 1018 30.06 847 25.01 10.8 51.5 75 6.6 43.9
06:30 1018 30.06 847 25.01 10.7 51.2 77 6.9 44.4
06:35 1018 30.06 847 25.01 10.4 50.6 78 6.6 43.9
06:40 1018 30.06 847 25.01 10.7 51.2 76 6.7 44
06:45 1018 30.06 847 25.01 10.9 51.7 76 6.9 44.5
06:50 1018 30.06 847 25.01 11 51.7 76 7 44.6
06:55 1018 30.06 847 25.01 11 51.9 76 7 44.6
07:00 1018 30.06 847 25.01 11.2 52.1 75 6.9 44.5
07:05 1018 30.06 847 25.01 11.3 52.3 75 7 44.6
07:10 1018 30.06 847 25.01 11.4 52.5 75 7.1 44.7
07:15 1018 30.06 847 25.01 11.5 52.7 74 7.2 44.9
07:20 1018 30.06 847 25.01 11.7 53.1 74 7.2 45
07:25 1018 30.06 847 25.01 11.8 53.3 73 7.2 45
07:30 1018 30.06 847 25.01 11.8 53.3 73 7.1 44.8
07:35 1018 30.06 847 25.01 11.9 53.4 73 7.3 45.1
07:40 1018 30.06 847 25.01 12.1 53.8 71 7.1 44.7
07:45 1018 30.06 847 25.01 12.4 54.2 71 7.2 45
07:50 1018 30.06 847 25.01 12.5 54.6 70 7.3 45.2
07:55 1018 30.06 847 25.01 12.6 54.7 71 7.6 45.7
08:00 1018 30.06 847 25.01 12.8 55.1 72 8 46.4
08:05 1018 30.06 847 25.01 13 55.4 69 7.5 45.4
08:10 1018 30.06 847 25.01 13.3 56 68 7.7 45.8
08:15 1018 30.06 847 25.01 14 57.2 66 7.8 46.1
08:20 1018 30.06 847 25.01 14.7 58.5 63 7.9 46.2
08:25 1018 30.06 847 25.01 15.6 60.1 59 7.8 46
08:30 1018 30.06 848 25.04 15.8 60.5 58 7.8 46
08:35 1019 30.09 848 25.04 16.4 61.4 55 7.5 45.5
08:40 1019 30.09 848 25.04 16.3 61.3 58 8.1 46.7
08:45 1019 30.09 848 25.04 16.1 61 54 6.8 44.3
08:50 1019 30.09 848 25.04 16.4 61.4 50 6 42.9
08:55 1018 30.06 848 25.04 17.2 62.9 50 6.6 43.9
09:00 1018 30.06 848 25.04 17.3 63.2 49 6.7 44.1
09:05 1018 30.06 848 25.04 17.2 63 53 7.7 45.8
09:10 1019 30.09 848 25.04 16.1 60.9 56 7.5 45.5
09:15 1019 30.09 848 25.04 15.7 60.2 56 7.1 44.8
09:20 1019 30.09 848 25.04 15.8 60.5 57 7.4 45.3
09:25 1019 30.09 848 25.04 16.2 61.2 56 7.7 45.8
09:30 1019 30.09 848 25.04 16.6 61.9 53 7.2 45
09:35 1019 30.09 848 25.04 17.6 63.6 52 7.8 46.1
09:40 1019 30.09 848 25.04 17.3 63.2 53 7.7 45.9
09:45 1019 30.09 848 25.04 17 62.6 50 6.6 43.9
09:50 1019 30.09 848 25.04 17 62.5 51 6.8 44.2
09:55 1019 30.09 848 25.04 17.5 63.4 47 6.2 43.1
10:00 1019 30.09 848 25.04 17.1 62.7 50 6.5 43.8
10:05 1019 30.09 848 25.04 16.7 62.1 50 6.5 43.7
10:10 1019 30.09 848 25.04 16.5 61.7 51 6.5 43.6
10:15 1019 30.09 848 25.04 16.8 62.2 52 6.8 44.3
10:20 1019 30.09 848 25.04 17.9 64.3 46 6.2 43.2
10:25 1019 30.09 848 25.04 18.9 65.9 42 5.9 42.6
10:30 1019 30.09 848 25.04 19.2 66.5 42 6.1 43
10:35 1019 30.09 848 25.04 19.3 66.7 42 6.2 43.1
10:40 1019 30.09 848 25.04 19.1 66.4 41 5.7 42.3
10:45 1019 30.09 848 25.04 19.4 67 41 5.9 42.6
10:50 1019 30.09 848 25.04 20 68 40 6.3 43.3
10:55 1019 30.09 848 25.04 19.7 67.5 41 6.2 43.1
11:00 1019 30.09 848 25.04 20.2 68.4 38 5.7 42.3
11:05 1019 30.09 848 25.04 20.5 68.9 39 6.2 43.2
11:10 1019 30.09 848 25.04 20.4 68.7 36 5.2 41.3
11:15 1019 30.09 848 25.04 20.1 68.1 37 4.9 40.9
11:20 1019 30.09 848 25.04 20.2 68.4 37 5.4 41.6
11:25 1019 30.09 848 25.04 20.7 69.3 36 5.3 41.6
11:30 1019 30.09 848 25.04 20.9 69.7 36 5.6 42
11:35 1019 30.09 848 25.04 21.2 70.2 34 5 41
11:40 1019 30.09 848 25.04 21.4 70.5 34 5.1 41.1
11:45 1019 30.09 848 25.04 20.8 69.5 37 5.6 42.1
11:50 1019 30.09 848 25.04 20.6 69 34 4.3 39.7
11:55 1019 30.09 848 25.04 21 69.8 33 4.5 40.1
12:00 1019 30.09 848 25.04 21.4 70.4 31 3.8 38.8
12:05 1019 30.09 848 25.04 21.4 70.4 33 4.4 39.9
12:10 1019 30.09 848 25.04 21.3 70.4 32 4.3 39.8
12:15 1019 30.09 848 25.04 20.9 69.6 33 4 39.3
12:20 1019 30.09 848 25.04 21.1 70 32 3.9 39.1
12:25 1019 30.09 848 25.04 21.1 70 32 4.1 39.4
12:30 1019 30.09 848 25.04 21.5 70.7 31 3.9 39
12:35 1019 30.09 848 25.04 21.6 70.8 31 4 39.2
12:40 1019 30.09 848 25.04 21.8 71.2 31 4.2 39.5
12:45 1018 30.06 848 25.04 21.9 71.4 31 4 39.2
12:50 1018 30.06 848 25.04 22.2 71.9 30 4.2 39.5
12:55 1018 30.06 848 25.04 22.2 71.9 30 4.2 39.5
13:00 1018 30.06 848 25.04 22 71.6 30 4 39.3
13:05 1018 30.06 847 25.01 22.2 72 31 4.3 39.7
13:10 1018 30.06 847 25.01 22.6 72.6 29 4 39.1
13:15 1018 30.06 847 25.01 22.6 72.6 30 4.4 39.9
13:20 1018 30.06 847 25.01 22.4 72.3 30 4.2 39.5
13:25 1018 30.06 847 25.01 22.2 71.9 30 4.1 39.4
13:30 1018 30.06 847 25.01 21.6 70.8 31 4 39.1
13:35 1018 30.06 847 25.01 20.9 69.6 33 4.1 39.3
13:40 1018 30.06 847 25.01 21.3 70.3 31 3.8 38.8
13:45 1018 30.06 847 25.01 21.8 71.3 31 4 39.1
13:50 1018 30.06 847 25.01 22 71.6 31 4.1 39.4
13:55 1018 30.06 847 25.01 21.8 71.2 31 4 39.1
14:00 1018 30.06 847 25.01 21.8 71.3 32 4.4 40
14:05 1018 30.06 847 25.01 22 71.7 30 4 39.2
14:10 1018 30.06 847 25.01 22.5 72.5 29 4 39.1
14:15 1018 30.06 847 25.01 22.6 72.7 29 4.1 39.5
14:20 1018 30.06 847 25.01 22.4 72.4 29 3.9 39.1
14:25 1018 30.06 847 25.01 22.9 73.1 29 3.9 39
14:30 1018 30.06 847 25.01 23 73.4 28 3.8 38.8
14:35 1018 30.06 847 25.01 22.9 73.2 28 3.6 38.6
14:40 1018 30.06 847 25.01 22.8 73.1 29 3.8 38.9
14:45 1018 30.06 847 25.01 22.7 72.8 30 4.2 39.6
14:50 1018 30.06 847 25.01 22.4 72.3 32 4.9 40.8
14:55 1018 30.06 847 25.01 21.9 71.4 32 4.4 40
15:00 1018 30.06 847 25.01 21.6 70.9 32 4.5 40
15:05 1018 30.06 847 25.01 21.6 70.8 33 4.7 40.4
15:10 1018 30.06 847 25.01 21.7 71.1 33 4.8 40.7
15:15 1018 30.06 847 25.01 21.8 71.2 32 4.4 39.9
15:20 1018 30.06 847 25.01 21.6 70.9 32 4.2 39.5
15:25 1018 30.06 847 25.01 21.6 71 31 4.1 39.3
15:30 1018 30.06 847 25.01 22 71.6 32 4.6 40.4
15:35 1018 30.06 847 25.01 22.1 71.7 32 4.6 40.2
15:40 1018 30.06 847 25.01 21.7 71.1 31 4.1 39.5
15:45 1018 30.06 847 25.01 21.6 70.8 32 4.2 39.5
15:50 1018 30.06 847 25.01 21.7 71 31 4.1 39.4
15:55 1018 30.06 847 25.01 21.9 71.4 31 4 39.1
16:00 1018 30.06 847 25.01 21.7 71.1 31 3.9 39.1
16:05 1018 30.06 847 25.01 21.3 70.3 32 4 39.2
16:10 1018 30.06 848 25.04 21.1 70 32 4.1 39.3
16:15 1018 30.06 848 25.04 21.3 70.3 32 4 39.2
16:20 1018 30.06 848 25.04 21.2 70.1 32 4.1 39.3
16:25 1019 30.09 848 25.04 21.3 70.3 31 3.7 38.7
16:30 1019 30.09 848 25.04 21.2 70.2 32 4.1 39.4
16:35 1019 30.09 848 25.04 20.9 69.6 33 4.1 39.3
16:40 1019 30.09 848 25.04 20.8 69.4 33 4 39.3
16:45 1019 30.09 848 25.04 20.7 69.2 34 4.4 39.9
16:50 1019 30.09 848 25.04 20.7 69.2 34 4.4 39.9
16:55 1019 30.09 848 25.04 20.7 69.3 34 4.3 39.7
17:00 1019 30.09 848 25.04 20.5 69 34 4.2 39.5
17:05 1019 30.09 848 25.04 20.4 68.8 34 4.4 39.9
17:10 1019 30.09 848 25.04 20.4 68.6 35 4.4 39.9
17:15 1019 30.09 848 25.04 20.2 68.4 34 4.1 39.3
17:20 1019 30.09 848 25.04 20.2 68.3 34 4 39.2
17:25 1019 30.09 848 25.04 20.2 68.3 34 3.9 39
17:30 1019 30.09 848 25.04 20.1 68.1 34 4.1 39.4
17:35 1019 30.09 848 25.04 20 67.9 35 4.2 39.5
17:40 1019 30.09 848 25.04 19.9 67.8 35 4 39.2
17:45 1019 30.09 849 25.07 19.7 67.5 36 4.4 39.9
17:50 1019 30.09 849 25.07 19.6 67.3 36 4.3 39.8
17:55 1019 30.09 849 25.07 19.5 67.1 37 4.5 40
18:00 1019 30.09 849 25.07 19.4 66.9 37 4.5 40.2
18:05 1019 30.09 849 25.07 19.3 66.7 37 4.4 39.9
18:10 1020 30.12 849 25.07 19.2 66.5 39 4.9 40.9
18:15 1020 30.12 849 25.07 19.1 66.4 37 4.2 39.6
18:20 1020 30.12 849 25.07 19.1 66.3 37 4.2 39.5
18:25 1020 30.12 849 25.07 18.9 66 40 5.1 41.2
18:30 1020 30.12 849 25.07 18.3 64.9 42 5.4 41.7
18:35 1020 30.12 849 25.07 17.9 64.2 42 4.9 40.8
18:40 1020 30.12 849 25.07 18 64.4 42 4.9 40.8
18:45 1020 30.12 849 25.07 18.1 64.5 41 4.7 40.5
18:50 1020 30.12 849 25.07 18.1 64.5 41 4.9 40.8
18:55 1020 30.12 849 25.07 18 64.4 40 4.3 39.8
19:00 1020 30.12 849 25.07 18 64.3 39 4 39.2
19:05 1020 30.12 849 25.07 18 64.3 39 4 39.2
19:10 1020 30.12 849 25.07 17.9 64.2 39 4 39.2
19:15 1020 30.12 849 25.07 17.8 64.1 39 3.9 39
19:20 1020 30.12 849 25.07 17.7 63.9 40 4 39.3
19:25 1020 30.12 849 25.07 17.6 63.6 40 4 39.1
19:30 1020 30.12 850 25.1 17.5 63.4 40 3.9 39.1
19:35 1021 30.15 850 25.1 17.3 63.2 41 4 39.2
19:40 1021 30.15 850 25.1 17.2 62.9 42 4.2 39.6
19:45 1021 30.15 850 25.1 17 62.6 42 4.3 39.7
19:50 1021 30.15 850 25.1 16.8 62.2 46 5.3 41.6
19:55 1021 30.15 850 25.1 15.9 60.7 48 5.1 41.2
20:00 1021 30.15 850 25.1 15.8 60.4 49 5 41.1
20:05 1021 30.15 850 25.1 15.7 60.3 50 5.3 41.6
20:10 1021 30.15 850 25.1 15.5 60 50 5.1 41.2
20:15 1021 30.15 850 25.1 15.8 60.4 48 4.8 40.7
20:20 1021 30.15 850 25.1 15.7 60.2 49 5.2 41.4
20:25 1021 30.15 850 25.1 15.5 59.9 50 5.2 41.4
20:30 1021 30.15 850 25.1 14.9 58.7 55 6.1 42.9
20:35 1021 30.15 850 25.1 14 57.2 56 5.4 41.8
20:40 1021 30.15 850 25.1 14 57.2 57 5.6 42
20:45 1021 30.15 850 25.1 14.1 57.4 56 5.5 41.9
20:50 1021 30.15 850 25.1 14.2 57.6 56 5.6 42
20:55 1021 30.15 850 25.1 14.4 57.9 53 5.1 41.3
21:00 1021 30.15 850 25.1 14.5 58.1 53 5.2 41.4
21:05 1021 30.15 850 25.1 14.5 58.1 54 5.4 41.7
21:10 1021 30.15 850 25.1 14.2 57.6 55 5.4 41.7
21:15 1021 30.15 850 25.1 13.9 57.1 56 5.5 41.8
21:20 1021 30.15 850 25.1 13.6 56.6 57 5.5 41.8
21:25 1021 30.15 850 25.1 13.4 56.2 58 5.5 41.9
21:30 1021 30.15 850 25.1 13.2 55.8 58 5.3 41.6
21:35 1021 30.15 851 25.13 13.1 55.6 59 5.3 41.5
21:40 1021 30.15 851 25.13 13 55.3 60 5.3 41.6
21:45 1021 30.15 851 25.13 12.9 55.1 60 5.4 41.8
21:50 1021 30.15 851 25.13 12.8 55 61 5.5 41.9
21:55 1022 30.18 851 25.13 12.6 54.6 61 5.2 41.3
22:00 1022 30.18 851 25.13 12.6 54.7 60 5.1 41.2
22:05 1022 30.18 851 25.13 12.6 54.7 60 5.2 41.4
22:10 1022 30.18 851 25.13 12.7 54.8 60 5.1 41.3
22:15 1022 30.18 851 25.13 12.7 54.8 60 5.2 41.3
22:20 1022 30.18 851 25.13 12.5 54.5 62 5.4 41.7
22:25 1022 30.18 851 25.13 12.3 54.1 60 4.9 40.7
22:30 1022 30.18 851 25.13 12.3 54.2 61 5 41.1
22:35 1022 30.18 851 25.13 12.2 54 60 4.8 40.7
22:40 1022 30.18 851 25.13 12.3 54.2 60 4.9 40.9
22:45 1022 30.18 851 25.13 12.2 54 61 4.9 40.9
22:50 1022 30.18 851 25.13 12.2 54 61 5 41
22:55 1022 30.18 851 25.13 12.1 53.7 61 4.8 40.7
23:00 1022 30.18 851 25.13 12 53.6 62 4.9 40.8
23:05 1022 30.18 851 25.13 12 53.5 61 4.7 40.4
23:10 1022 30.18 852 25.16 12 53.5 61 4.6 40.4
23:15 1022 30.18 852 25.16 11.9 53.4 63 5 41.1
23:20 1022 30.18 852 25.16 11.7 53 61 4.6 40.2
23:25 1022 30.18 852 25.16 11.9 53.5 60 4.5 40.2
23:30 1023 30.21 852 25.16 12.1 53.9 59 4.5 40.1
23:35 1023 30.21 852 25.16 12 53.7 62 5 41
23:40 1023 30.21 852 25.16 11.4 52.5 64 4.8 40.6
23:45 1023 30.21 852 25.16 11.2 52.1 65 4.9 40.8
23:50 1023 30.21 852 25.16 11 51.9 64 4.5 40.1
23:55 1023 30.21 852 25.16 11.3 52.3 63 4.6 40.3
24:00 1023 30.21 852 25.16 11.3 52.3 63 4.6 40.3